sensor_id;sensor_type;location;lat;lon;timestamp;temperature;humidity
51035;DHT22;37062;52.546;13.230;2022-09-27T00:01:00;14.90;99.90
51035;DHT22;37062;52.546;13.230;2022-09-27T00:03:29;14.90;99.90
51035;DHT22;37062;52.546;13.230;2022-09-27T00:06:01;14.90;99.90
51035;DHT22;37062;52.546;13.230;2022-09-27T00:08:31;14.80;99.90
51035;DHT22;37062;52.546;13.230;2022-09-27T00:10:59;14.80;99.90
51035;DHT22;37062;52.546;13.230;2022-09-27T00:13:28;14.70;99.90
51035;DHT22;37062;52.546;13.230;2022-09-27T00:15:58;14.70;99.90
51035;DHT22;37062;52.546;13.230;2022-09-27T00:18:26;14.70;99.90
51035;DHT22;37062;52.546;13.230;2022-09-27T00:20:54;14.70;99.90
51035;DHT22;37062;52.546;13.230;2022-09-27T00:23:21;14.70;99.90
51035;DHT22;37062;52.546;13.230;2022-09-27T00:25:55;14.70;99.90
51035;DHT22;37062;52.546;13.230;2022-09-27T00:28:24;14.70;99.90
51035;DHT22;37062;52.546;13.230;2022-09-27T00:30:52;14.70;99.90
51035;DHT22;37062;52.546;13.230;2022-09-27T00:33:21;14.70;99.90
51035;DHT22;37062;52.546;13.230;2022-09-27T00:35:48;14.70;99.90
51035;DHT22;37062;52.546;13.230;2022-09-27T00:38:16;14.70;99.90
51035;DHT22;37062;52.546;13.230;2022-09-27T00:40:44;14.70;99.90
51035;DHT22;37062;52.546;13.230;2022-09-27T00:43:17;14.70;99.90
51035;DHT22;37062;52.546;13.230;2022-09-27T00:45:48;14.70;99.90
51035;DHT22;37062;52.546;13.230;2022-09-27T00:48:21;14.70;99.90
51035;DHT22;37062;52.546;13.230;2022-09-27T00:50:54;14.60;99.90
51035;DHT22;37062;52.546;13.230;2022-09-27T00:53:26;14.60;99.90
51035;DHT22;37062;52.546;13.230;2022-09-27T00:56:03;14.60;99.90
51035;DHT22;37062;52.546;13.230;2022-09-27T00:58:35;14.60;99.90
51035;DHT22;37062;52.546;13.230;2022-09-27T01:01:06;14.50;99.90
51035;DHT22;37062;52.546;13.230;2022-09-27T01:03:43;14.50;99.90
51035;DHT22;37062;52.546;13.230;2022-09-27T01:06:11;14.60;99.90
51035;DHT22;37062;52.546;13.230;2022-09-27T01:08:40;14.50;99.90
51035;DHT22;37062;52.546;13.230;2022-09-27T01:11:30;14.50;99.90
51035;DHT22;37062;52.546;13.230;2022-09-27T01:14:10;14.40;99.90
51035;DHT22;37062;52.546;13.230;2022-09-27T01:16:46;14.40;99.90
51035;DHT22;37062;52.546;13.230;2022-09-27T01:19:32;14.40;99.90
51035;DHT22;37062;52.546;13.230;2022-09-27T01:22:10;14.50;99.90
51035;DHT22;37062;52.546;13.230;2022-09-27T01:24:59;14.50;99.90
51035;DHT22;37062;52.546;13.230;2022-09-27T01:27:47;14.50;99.90
51035;DHT22;37062;52.546;13.230;2022-09-27T01:30:24;14.50;99.90
51035;DHT22;37062;52.546;13.230;2022-09-27T01:33:06;14.50;99.90
51035;DHT22;37062;52.546;13.230;2022-09-27T01:35:38;14.50;99.90
51035;DHT22;37062;52.546;13.230;2022-09-27T01:38:13;14.50;99.90
51035;DHT22;37062;52.546;13.230;2022-09-27T01:40:49;14.40;99.90
51035;DHT22;37062;52.546;13.230;2022-09-27T01:44:01;14.50;99.90
51035;DHT22;37062;52.546;13.230;2022-09-27T01:46:39;14.50;99.90
51035;DHT22;37062;52.546;13.230;2022-09-27T01:49:28;14.50;99.90
51035;DHT22;37062;52.546;13.230;2022-09-27T01:51:59;14.60;99.90
51035;DHT22;37062;52.546;13.230;2022-09-27T01:54:31;14.60;99.90
51035;DHT22;37062;52.546;13.230;2022-09-27T01:57:29;14.60;99.90
51035;DHT22;37062;52.546;13.230;2022-09-27T02:00:01;14.60;99.90
51035;DHT22;37062;52.546;13.230;2022-09-27T02:02:51;14.70;99.90
51035;DHT22;37062;52.546;13.230;2022-09-27T02:05:34;14.70;99.90
51035;DHT22;37062;52.546;13.230;2022-09-27T02:08:22;14.70;99.90
51035;DHT22;37062;52.546;13.230;2022-09-27T02:10:55;14.70;99.90
51035;DHT22;37062;52.546;13.230;2022-09-27T02:13:32;14.60;99.90
51035;DHT22;37062;52.546;13.230;2022-09-27T02:16:27;14.60;99.90
51035;DHT22;37062;52.546;13.230;2022-09-27T02:19:08;14.60;99.90
51035;DHT22;37062;52.546;13.230;2022-09-27T02:21:41;14.60;99.90
51035;DHT22;37062;52.546;13.230;2022-09-27T02:24:14;14.60;99.90
51035;DHT22;37062;52.546;13.230;2022-09-27T02:26:50;14.70;99.90
51035;DHT22;37062;52.546;13.230;2022-09-27T02:29:23;14.70;99.90
51035;DHT22;37062;52.546;13.230;2022-09-27T02:31:53;14.70;99.90
51035;DHT22;37062;52.546;13.230;2022-09-27T02:34:24;14.70;99.90
51035;DHT22;37062;52.546;13.230;2022-09-27T02:36:53;14.70;99.90
51035;DHT22;37062;52.546;13.230;2022-09-27T02:39:22;14.70;99.90
51035;DHT22;37062;52.546;13.230;2022-09-27T02:41:59;14.70;99.90
51035;DHT22;37062;52.546;13.230;2022-09-27T02:44:27;14.60;99.90
51035;DHT22;37062;52.546;13.230;2022-09-27T02:47:17;14.70;99.90
51035;DHT22;37062;52.546;13.230;2022-09-27T02:49:58;14.70;99.90
51035;DHT22;37062;52.546;13.230;2022-09-27T02:52:52;14.60;99.90
51035;DHT22;37062;52.546;13.230;2022-09-27T02:55:31;14.70;99.90
51035;DHT22;37062;52.546;13.230;2022-09-27T02:58:40;14.70;99.90
51035;DHT22;37062;52.546;13.230;2022-09-27T03:01:36;14.70;99.90
51035;DHT22;37062;52.546;13.230;2022-09-27T03:04:13;14.70;99.90
51035;DHT22;37062;52.546;13.230;2022-09-27T03:06:45;14.70;99.90
51035;DHT22;37062;52.546;13.230;2022-09-27T03:09:17;14.70;99.90
51035;DHT22;37062;52.546;13.230;2022-09-27T03:11:45;14.80;99.90
51035;DHT22;37062;52.546;13.230;2022-09-27T03:14:14;14.80;99.90
51035;DHT22;37062;52.546;13.230;2022-09-27T03:16:52;14.90;99.90
51035;DHT22;37062;52.546;13.230;2022-09-27T03:19:40;14.90;99.90
51035;DHT22;37062;52.546;13.230;2022-09-27T03:22:28;14.90;99.90
51035;DHT22;37062;52.546;13.230;2022-09-27T03:24:55;14.90;99.90
51035;DHT22;37062;52.546;13.230;2022-09-27T03:27:23;14.90;99.90
51035;DHT22;37062;52.546;13.230;2022-09-27T03:29:51;14.80;99.90
51035;DHT22;37062;52.546;13.230;2022-09-27T03:32:18;14.80;99.90
51035;DHT22;37062;52.546;13.230;2022-09-27T03:35:21;14.70;99.90
51035;DHT22;37062;52.546;13.230;2022-09-27T03:37:50;14.70;99.90
51035;DHT22;37062;52.546;13.230;2022-09-27T03:40:17;14.70;99.90
51035;DHT22;37062;52.546;13.230;2022-09-27T03:42:45;14.70;99.90
51035;DHT22;37062;52.546;13.230;2022-09-27T03:45:15;14.70;99.90
51035;DHT22;37062;52.546;13.230;2022-09-27T03:47:43;14.70;99.90
51035;DHT22;37062;52.546;13.230;2022-09-27T03:50:11;14.70;99.90
51035;DHT22;37062;52.546;13.230;2022-09-27T03:52:40;14.70;99.90
51035;DHT22;37062;52.546;13.230;2022-09-27T03:55:10;14.70;99.90
51035;DHT22;37062;52.546;13.230;2022-09-27T03:57:38;14.60;99.90
51035;DHT22;37062;52.546;13.230;2022-09-27T04:00:11;14.60;99.90
51035;DHT22;37062;52.546;13.230;2022-09-27T04:02:39;14.50;99.90
51035;DHT22;37062;52.546;13.230;2022-09-27T04:05:26;14.50;99.90
51035;DHT22;37062;52.546;13.230;2022-09-27T04:08:01;14.50;99.90
51035;DHT22;37062;52.546;13.230;2022-09-27T04:10:33;14.50;99.90
51035;DHT22;37062;52.546;13.230;2022-09-27T04:13:02;14.50;99.90
51035;DHT22;37062;52.546;13.230;2022-09-27T04:15:34;14.50;99.90
51035;DHT22;37062;52.546;13.230;2022-09-27T04:18:21;14.50;99.90
51035;DHT22;37062;52.546;13.230;2022-09-27T04:21:07;14.50;99.90
51035;DHT22;37062;52.546;13.230;2022-09-27T04:23:39;14.50;99.90
51035;DHT22;37062;52.546;13.230;2022-09-27T04:26:08;14.50;99.90
51035;DHT22;37062;52.546;13.230;2022-09-27T04:28:46;14.40;99.90
51035;DHT22;37062;52.546;13.230;2022-09-27T04:31:16;14.40;99.90
51035;DHT22;37062;52.546;13.230;2022-09-27T04:33:47;14.50;99.90
51035;DHT22;37062;52.546;13.230;2022-09-27T04:36:21;14.50;99.90
51035;DHT22;37062;52.546;13.230;2022-09-27T04:39:04;14.40;99.90
51035;DHT22;37062;52.546;13.230;2022-09-27T04:41:36;14.30;99.90
51035;DHT22;37062;52.546;13.230;2022-09-27T04:44:04;14.40;99.90
51035;DHT22;37062;52.546;13.230;2022-09-27T04:46:31;14.40;99.90
51035;DHT22;37062;52.546;13.230;2022-09-27T04:49:00;14.30;99.90
51035;DHT22;37062;52.546;13.230;2022-09-27T04:51:29;14.30;99.90
51035;DHT22;37062;52.546;13.230;2022-09-27T04:53:57;14.20;99.90
51035;DHT22;37062;52.546;13.230;2022-09-27T04:56:29;14.20;99.90
51035;DHT22;37062;52.546;13.230;2022-09-27T04:58:57;14.20;99.90
51035;DHT22;37062;52.546;13.230;2022-09-27T05:01:26;14.20;99.90
51035;DHT22;37062;52.546;13.230;2022-09-27T05:03:59;14.20;99.90
51035;DHT22;37062;52.546;13.230;2022-09-27T05:06:28;14.20;99.90
51035;DHT22;37062;52.546;13.230;2022-09-27T05:09:01;14.10;99.90
51035;DHT22;37062;52.546;13.230;2022-09-27T05:11:33;14.10;99.90
51035;DHT22;37062;52.546;13.230;2022-09-27T05:14:16;14.10;99.90
51035;DHT22;37062;52.546;13.230;2022-09-27T05:17:13;14.10;99.90
51035;DHT22;37062;52.546;13.230;2022-09-27T05:20:00;14.10;99.90
51035;DHT22;37062;52.546;13.230;2022-09-27T05:22:33;14.00;99.90
51035;DHT22;37062;52.546;13.230;2022-09-27T05:25:01;13.90;99.90
51035;DHT22;37062;52.546;13.230;2022-09-27T05:27:28;13.90;99.90
51035;DHT22;37062;52.546;13.230;2022-09-27T05:29:57;13.90;99.90
51035;DHT22;37062;52.546;13.230;2022-09-27T05:32:34;13.90;99.90
51035;DHT22;37062;52.546;13.230;2022-09-27T05:35:25;13.80;99.90
51035;DHT22;37062;52.546;13.230;2022-09-27T05:37:54;13.80;99.90
51035;DHT22;37062;52.546;13.230;2022-09-27T05:40:23;13.80;99.90
51035;DHT22;37062;52.546;13.230;2022-09-27T05:42:52;13.80;99.90
51035;DHT22;37062;52.546;13.230;2022-09-27T05:45:22;13.90;99.90
51035;DHT22;37062;52.546;13.230;2022-09-27T05:47:53;13.80;99.90
51035;DHT22;37062;52.546;13.230;2022-09-27T05:50:20;13.80;99.90
51035;DHT22;37062;52.546;13.230;2022-09-27T05:52:48;13.80;99.90
51035;DHT22;37062;52.546;13.230;2022-09-27T05:55:18;13.90;99.90
51035;DHT22;37062;52.546;13.230;2022-09-27T05:57:57;13.90;99.90
51035;DHT22;37062;52.546;13.230;2022-09-27T06:00:32;14.00;99.90
51035;DHT22;37062;52.546;13.230;2022-09-27T06:03:05;14.00;99.90
51035;DHT22;37062;52.546;13.230;2022-09-27T06:05:51;13.90;99.90
51035;DHT22;37062;52.546;13.230;2022-09-27T06:08:36;13.90;99.90
51035;DHT22;37062;52.546;13.230;2022-09-27T06:11:06;13.90;99.90
51035;DHT22;37062;52.546;13.230;2022-09-27T06:13:35;14.00;99.90
51035;DHT22;37062;52.546;13.230;2022-09-27T06:16:05;14.10;99.90
51035;DHT22;37062;52.546;13.230;2022-09-27T06:18:35;14.10;99.90
51035;DHT22;37062;52.546;13.230;2022-09-27T06:21:03;14.20;99.90
51035;DHT22;37062;52.546;13.230;2022-09-27T06:23:32;14.10;99.90
51035;DHT22;37062;52.546;13.230;2022-09-27T06:26:09;14.20;99.90
51035;DHT22;37062;52.546;13.230;2022-09-27T06:28:49;14.20;99.90
51035;DHT22;37062;52.546;13.230;2022-09-27T06:31:19;14.30;99.90
51035;DHT22;37062;52.546;13.230;2022-09-27T06:33:51;14.30;99.90
51035;DHT22;37062;52.546;13.230;2022-09-27T06:36:19;14.30;99.90
51035;DHT22;37062;52.546;13.230;2022-09-27T06:38:47;14.40;99.90
51035;DHT22;37062;52.546;13.230;2022-09-27T06:41:21;14.40;99.90
51035;DHT22;37062;52.546;13.230;2022-09-27T06:44:07;14.30;99.90
51035;DHT22;37062;52.546;13.230;2022-09-27T06:46:37;14.30;99.90
51035;DHT22;37062;52.546;13.230;2022-09-27T06:49:20;14.30;99.90
51035;DHT22;37062;52.546;13.230;2022-09-27T06:51:48;14.40;99.90
51035;DHT22;37062;52.546;13.230;2022-09-27T06:54:16;14.40;99.90
51035;DHT22;37062;52.546;13.230;2022-09-27T06:56:45;14.40;99.90
51035;DHT22;37062;52.546;13.230;2022-09-27T06:59:13;14.40;99.90
51035;DHT22;37062;52.546;13.230;2022-09-27T07:02:18;14.30;99.90
51035;DHT22;37062;52.546;13.230;2022-09-27T07:04:57;14.30;99.90
51035;DHT22;37062;52.546;13.230;2022-09-27T07:07:48;14.20;99.90
51035;DHT22;37062;52.546;13.230;2022-09-27T07:10:18;14.20;99.90
51035;DHT22;37062;52.546;13.230;2022-09-27T07:12:46;14.10;99.90
51035;DHT22;37062;52.546;13.230;2022-09-27T07:15:16;14.10;99.90
51035;DHT22;37062;52.546;13.230;2022-09-27T07:17:45;14.10;99.90
51035;DHT22;37062;52.546;13.230;2022-09-27T07:20:12;14.10;99.90
51035;DHT22;37062;52.546;13.230;2022-09-27T07:22:41;14.10;99.90
51035;DHT22;37062;52.546;13.230;2022-09-27T07:25:11;14.10;99.90
51035;DHT22;37062;52.546;13.230;2022-09-27T07:27:39;14.20;99.90
51035;DHT22;37062;52.546;13.230;2022-09-27T07:30:10;14.30;99.90
51035;DHT22;37062;52.546;13.230;2022-09-27T07:32:37;14.30;99.90
51035;DHT22;37062;52.546;13.230;2022-09-27T07:35:10;14.40;99.90
51035;DHT22;37062;52.546;13.230;2022-09-27T07:37:38;14.50;99.90
51035;DHT22;37062;52.546;13.230;2022-09-27T07:40:08;14.60;99.90
51035;DHT22;37062;52.546;13.230;2022-09-27T07:42:36;14.60;99.90
51035;DHT22;37062;52.546;13.230;2022-09-27T07:45:05;14.70;99.90
51035;DHT22;37062;52.546;13.230;2022-09-27T07:47:59;14.70;99.90
51035;DHT22;37062;52.546;13.230;2022-09-27T07:50:51;14.70;99.90
51035;DHT22;37062;52.546;13.230;2022-09-27T07:53:37;14.70;99.90
51035;DHT22;37062;52.546;13.230;2022-09-27T07:56:25;14.70;99.90
51035;DHT22;37062;52.546;13.230;2022-09-27T07:58:53;14.70;99.90
51035;DHT22;37062;52.546;13.230;2022-09-27T08:01:21;14.70;99.90
51035;DHT22;37062;52.546;13.230;2022-09-27T08:03:48;14.70;99.90
51035;DHT22;37062;52.546;13.230;2022-09-27T08:06:18;14.80;99.90
51035;DHT22;37062;52.546;13.230;2022-09-27T08:08:46;14.90;99.90
51035;DHT22;37062;52.546;13.230;2022-09-27T08:11:17;14.90;99.90
51035;DHT22;37062;52.546;13.230;2022-09-27T08:13:48;14.90;99.90
51035;DHT22;37062;52.546;13.230;2022-09-27T08:16:19;15.00;99.90
51035;DHT22;37062;52.546;13.230;2022-09-27T08:19:05;15.00;99.90
51035;DHT22;37062;52.546;13.230;2022-09-27T08:21:53;15.10;99.90
51035;DHT22;37062;52.546;13.230;2022-09-27T08:24:23;15.00;99.90
51035;DHT22;37062;52.546;13.230;2022-09-27T08:27:20;14.90;99.90
51035;DHT22;37062;52.546;13.230;2022-09-27T08:29:51;14.90;99.90
51035;DHT22;37062;52.546;13.230;2022-09-27T08:32:19;14.90;99.90
51035;DHT22;37062;52.546;13.230;2022-09-27T08:34:46;15.00;99.90
51035;DHT22;37062;52.546;13.230;2022-09-27T08:37:15;15.10;99.90
51035;DHT22;37062;52.546;13.230;2022-09-27T08:39:43;15.10;99.90
51035;DHT22;37062;52.546;13.230;2022-09-27T08:42:17;15.10;99.90
51035;DHT22;37062;52.546;13.230;2022-09-27T08:44:51;15.20;99.90
51035;DHT22;37062;52.546;13.230;2022-09-27T08:47:25;15.20;99.90
51035;DHT22;37062;52.546;13.230;2022-09-27T08:50:00;15.20;99.90
51035;DHT22;37062;52.546;13.230;2022-09-27T08:52:32;15.20;99.90
51035;DHT22;37062;52.546;13.230;2022-09-27T08:55:17;15.30;99.90
51035;DHT22;37062;52.546;13.230;2022-09-27T08:57:49;15.40;99.90
51035;DHT22;37062;52.546;13.230;2022-09-27T09:00:18;15.40;99.90
51035;DHT22;37062;52.546;13.230;2022-09-27T09:02:46;15.40;99.90
51035;DHT22;37062;52.546;13.230;2022-09-27T09:05:18;15.50;99.90
51035;DHT22;37062;52.546;13.230;2022-09-27T09:10:51;15.50;99.90
51035;DHT22;37062;52.546;13.230;2022-09-27T09:13:51;15.60;99.90
51035;DHT22;37062;52.546;13.230;2022-09-27T09:16:33;15.70;99.90
51035;DHT22;37062;52.546;13.230;2022-09-27T09:19:15;15.70;99.90
51035;DHT22;37062;52.546;13.230;2022-09-27T09:22:19;15.80;99.90
51035;DHT22;37062;52.546;13.230;2022-09-27T09:25:03;15.60;99.90
51035;DHT22;37062;52.546;13.230;2022-09-27T09:27:39;15.60;99.90
51035;DHT22;37062;52.546;13.230;2022-09-27T09:30:19;15.60;99.90
51035;DHT22;37062;52.546;13.230;2022-09-27T09:33:07;15.60;99.90
51035;DHT22;37062;52.546;13.230;2022-09-27T09:35:40;15.70;99.90
51035;DHT22;37062;52.546;13.230;2022-09-27T09:38:12;15.80;99.90
51035;DHT22;37062;52.546;13.230;2022-09-27T09:40:48;16.00;99.90
51035;DHT22;37062;52.546;13.230;2022-09-27T09:43:20;16.10;99.90
51035;DHT22;37062;52.546;13.230;2022-09-27T09:45:57;16.20;99.90
51035;DHT22;37062;52.546;13.230;2022-09-27T09:48:31;16.20;99.90
51035;DHT22;37062;52.546;13.230;2022-09-27T09:51:05;16.20;99.90
51035;DHT22;37062;52.546;13.230;2022-09-27T09:53:39;16.10;99.90
51035;DHT22;37062;52.546;13.230;2022-09-27T09:56:14;16.20;99.90
51035;DHT22;37062;52.546;13.230;2022-09-27T09:58:48;16.20;99.90
51035;DHT22;37062;52.546;13.230;2022-09-27T10:01:21;16.30;99.90
51035;DHT22;37062;52.546;13.230;2022-09-27T10:03:49;16.30;99.90
51035;DHT22;37062;52.546;13.230;2022-09-27T10:06:18;16.40;99.90
51035;DHT22;37062;52.546;13.230;2022-09-27T10:08:46;16.50;99.90
51035;DHT22;37062;52.546;13.230;2022-09-27T10:11:36;16.50;99.90
51035;DHT22;37062;52.546;13.230;2022-09-27T10:14:15;16.60;99.90
51035;DHT22;37062;52.546;13.230;2022-09-27T10:16:45;16.60;99.90
51035;DHT22;37062;52.546;13.230;2022-09-27T10:19:17;16.70;99.90
51035;DHT22;37062;52.546;13.230;2022-09-27T10:21:50;16.70;99.90
51035;DHT22;37062;52.546;13.230;2022-09-27T10:24:17;16.80;99.90
51035;DHT22;37062;52.546;13.230;2022-09-27T10:27:06;16.90;99.90
51035;DHT22;37062;52.546;13.230;2022-09-27T10:29:36;16.90;99.90
51035;DHT22;37062;52.546;13.230;2022-09-27T10:32:21;16.90;99.90
51035;DHT22;37062;52.546;13.230;2022-09-27T10:34:54;16.90;99.90
51035;DHT22;37062;52.546;13.230;2022-09-27T10:37:22;16.90;99.90
51035;DHT22;37062;52.546;13.230;2022-09-27T10:40:23;16.90;99.90
51035;DHT22;37062;52.546;13.230;2022-09-27T10:42:54;17.10;99.90
51035;DHT22;37062;52.546;13.230;2022-09-27T10:45:28;17.10;99.90
51035;DHT22;37062;52.546;13.230;2022-09-27T10:48:18;17.20;99.90
51035;DHT22;37062;52.546;13.230;2022-09-27T10:50:57;17.20;99.90
51035;DHT22;37062;52.546;13.230;2022-09-27T10:53:44;17.30;99.90
51035;DHT22;37062;52.546;13.230;2022-09-27T10:56:23;17.40;99.90
51035;DHT22;37062;52.546;13.230;2022-09-27T10:58:54;17.60;99.90
51035;DHT22;37062;52.546;13.230;2022-09-27T11:01:25;17.60;99.90
51035;DHT22;37062;52.546;13.230;2022-09-27T11:04:18;17.50;99.90
51035;DHT22;37062;52.546;13.230;2022-09-27T11:06:47;17.30;99.90
51035;DHT22;37062;52.546;13.230;2022-09-27T11:09:19;17.40;99.90
51035;DHT22;37062;52.546;13.230;2022-09-27T11:11:52;17.60;99.90
51035;DHT22;37062;52.546;13.230;2022-09-27T11:14:35;17.90;99.90
51035;DHT22;37062;52.546;13.230;2022-09-27T11:17:09;18.00;99.90
51035;DHT22;37062;52.546;13.230;2022-09-27T11:19:57;18.10;99.90
51035;DHT22;37062;52.546;13.230;2022-09-27T11:22:40;18.20;99.90
51035;DHT22;37062;52.546;13.230;2022-09-27T11:25:19;18.20;99.90
51035;DHT22;37062;52.546;13.230;2022-09-27T11:27:59;18.10;99.90
51035;DHT22;37062;52.546;13.230;2022-09-27T11:30:42;18.10;99.90
51035;DHT22;37062;52.546;13.230;2022-09-27T11:33:45;17.90;99.90
51035;DHT22;37062;52.546;13.230;2022-09-27T11:36:21;17.60;99.90
51035;DHT22;37062;52.546;13.230;2022-09-27T11:38:57;16.90;99.90
51035;DHT22;37062;52.546;13.230;2022-09-27T11:41:41;16.50;99.90
51035;DHT22;37062;52.546;13.230;2022-09-27T11:44:24;16.00;99.90
51035;DHT22;37062;52.546;13.230;2022-09-27T11:47:03;15.60;99.90
51035;DHT22;37062;52.546;13.230;2022-09-27T11:49:54;15.30;99.90
51035;DHT22;37062;52.546;13.230;2022-09-27T11:52:34;15.10;99.90
51035;DHT22;37062;52.546;13.230;2022-09-27T11:55:15;14.90;99.90
51035;DHT22;37062;52.546;13.230;2022-09-27T11:57:50;14.90;99.90
51035;DHT22;37062;52.546;13.230;2022-09-27T12:00:21;14.90;99.90
51035;DHT22;37062;52.546;13.230;2022-09-27T12:03:36;14.90;99.90
51035;DHT22;37062;52.546;13.230;2022-09-27T12:06:11;14.80;99.90
51035;DHT22;37062;52.546;13.230;2022-09-27T12:08:48;14.80;99.90
51035;DHT22;37062;52.546;13.230;2022-09-27T12:11:24;14.90;99.90
51035;DHT22;37062;52.546;13.230;2022-09-27T12:13:56;14.90;99.90
51035;DHT22;37062;52.546;13.230;2022-09-27T12:16:26;15.00;99.90
51035;DHT22;37062;52.546;13.230;2022-09-27T12:18:55;15.00;99.90
51035;DHT22;37062;52.546;13.230;2022-09-27T12:21:50;15.10;99.90
51035;DHT22;37062;52.546;13.230;2022-09-27T12:24:20;15.20;99.90
51035;DHT22;37062;52.546;13.230;2022-09-27T12:27:09;15.30;99.90
51035;DHT22;37062;52.546;13.230;2022-09-27T12:29:41;15.30;99.90
51035;DHT22;37062;52.546;13.230;2022-09-27T12:32:15;15.40;99.90
51035;DHT22;37062;52.546;13.230;2022-09-27T12:34:50;15.60;99.90
51035;DHT22;37062;52.546;13.230;2022-09-27T12:37:26;15.90;99.90
51035;DHT22;37062;52.546;13.230;2022-09-27T12:39:58;16.30;99.90
51035;DHT22;37062;52.546;13.230;2022-09-27T12:42:35;16.50;99.90
51035;DHT22;37062;52.546;13.230;2022-09-27T12:45:13;16.60;99.90
51035;DHT22;37062;52.546;13.230;2022-09-27T12:47:55;16.60;99.90
51035;DHT22;37062;52.546;13.230;2022-09-27T12:50:34;16.50;99.90
51035;DHT22;37062;52.546;13.230;2022-09-27T12:53:10;16.30;99.90
51035;DHT22;37062;52.546;13.230;2022-09-27T12:55:50;16.10;99.90
51035;DHT22;37062;52.546;13.230;2022-09-27T12:58:35;16.10;99.90
51035;DHT22;37062;52.546;13.230;2022-09-27T13:01:14;16.20;99.90
51035;DHT22;37062;52.546;13.230;2022-09-27T13:04:04;16.40;99.90
51035;DHT22;37062;52.546;13.230;2022-09-27T13:06:58;16.40;99.90
51035;DHT22;37062;52.546;13.230;2022-09-27T13:09:54;16.40;99.90
51035;DHT22;37062;52.546;13.230;2022-09-27T13:12:25;16.40;99.90
51035;DHT22;37062;52.546;13.230;2022-09-27T13:14:59;16.40;99.90
51035;DHT22;37062;52.546;13.230;2022-09-27T13:17:47;16.40;99.90
51035;DHT22;37062;52.546;13.230;2022-09-27T13:20:42;16.50;99.90
51035;DHT22;37062;52.546;13.230;2022-09-27T13:24:00;16.50;99.90
51035;DHT22;37062;52.546;13.230;2022-09-27T13:26:47;16.30;99.90
51035;DHT22;37062;52.546;13.230;2022-09-27T13:29:29;16.10;99.90
51035;DHT22;37062;52.546;13.230;2022-09-27T13:32:24;16.10;99.90
51035;DHT22;37062;52.546;13.230;2022-09-27T13:35:15;16.20;99.90
51035;DHT22;37062;52.546;13.230;2022-09-27T13:37:48;16.30;99.90
51035;DHT22;37062;52.546;13.230;2022-09-27T13:40:31;16.30;99.90
51035;DHT22;37062;52.546;13.230;2022-09-27T13:43:38;16.30;99.90
51035;DHT22;37062;52.546;13.230;2022-09-27T13:46:31;16.00;99.90
51035;DHT22;37062;52.546;13.230;2022-09-27T13:49:03;15.90;99.90
51035;DHT22;37062;52.546;13.230;2022-09-27T13:51:55;15.90;99.90
51035;DHT22;37062;52.546;13.230;2022-09-27T13:54:38;15.80;99.90
51035;DHT22;37062;52.546;13.230;2022-09-27T13:57:41;15.70;99.90
51035;DHT22;37062;52.546;13.230;2022-09-27T14:00:13;15.60;99.90
51035;DHT22;37062;52.546;13.230;2022-09-27T14:02:59;15.50;99.90
51035;DHT22;37062;52.546;13.230;2022-09-27T14:05:39;15.50;99.90
51035;DHT22;37062;52.546;13.230;2022-09-27T14:08:17;15.50;99.90
51035;DHT22;37062;52.546;13.230;2022-09-27T14:10:46;15.40;99.90
51035;DHT22;37062;52.546;13.230;2022-09-27T14:13:18;15.30;99.90
51035;DHT22;37062;52.546;13.230;2022-09-27T14:15:58;15.40;99.90
51035;DHT22;37062;52.546;13.230;2022-09-27T14:18:28;15.50;99.90
51035;DHT22;37062;52.546;13.230;2022-09-27T14:21:10;15.70;99.90
51035;DHT22;37062;52.546;13.230;2022-09-27T14:23:51;15.70;99.90
51035;DHT22;37062;52.546;13.230;2022-09-27T14:26:23;15.70;99.90
51035;DHT22;37062;52.546;13.230;2022-09-27T14:28:53;15.70;99.90
51035;DHT22;37062;52.546;13.230;2022-09-27T14:31:27;15.60;99.90
51035;DHT22;37062;52.546;13.230;2022-09-27T14:34:04;15.60;99.90
51035;DHT22;37062;52.546;13.230;2022-09-27T14:36:34;15.50;99.90
51035;DHT22;37062;52.546;13.230;2022-09-27T14:39:24;15.40;99.90
51035;DHT22;37062;52.546;13.230;2022-09-27T14:41:54;15.30;99.90
51035;DHT22;37062;52.546;13.230;2022-09-27T14:44:23;15.30;99.90
51035;DHT22;37062;52.546;13.230;2022-09-27T14:47:06;15.30;99.90
51035;DHT22;37062;52.546;13.230;2022-09-27T14:49:33;15.40;99.90
51035;DHT22;37062;52.546;13.230;2022-09-27T14:52:01;15.50;99.90
51035;DHT22;37062;52.546;13.230;2022-09-27T14:54:28;15.50;99.90
51035;DHT22;37062;52.546;13.230;2022-09-27T14:56:58;15.50;99.90
51035;DHT22;37062;52.546;13.230;2022-09-27T14:59:28;15.50;99.90
51035;DHT22;37062;52.546;13.230;2022-09-27T15:01:58;15.50;99.90
51035;DHT22;37062;52.546;13.230;2022-09-27T15:04:28;15.40;99.90
51035;DHT22;37062;52.546;13.230;2022-09-27T15:06:57;15.40;99.90
51035;DHT22;37062;52.546;13.230;2022-09-27T15:09:26;15.30;99.90
51035;DHT22;37062;52.546;13.230;2022-09-27T15:11:56;15.20;99.90
51035;DHT22;37062;52.546;13.230;2022-09-27T15:14:27;15.20;99.90
51035;DHT22;37062;52.546;13.230;2022-09-27T15:16:58;15.20;99.90
51035;DHT22;37062;52.546;13.230;2022-09-27T15:19:32;15.10;99.90
51035;DHT22;37062;52.546;13.230;2022-09-27T15:22:20;15.10;99.90
51035;DHT22;37062;52.546;13.230;2022-09-27T15:24:48;15.20;99.90
51035;DHT22;37062;52.546;13.230;2022-09-27T15:27:17;15.20;99.90
51035;DHT22;37062;52.546;13.230;2022-09-27T15:29:49;15.20;99.90
51035;DHT22;37062;52.546;13.230;2022-09-27T15:32:19;15.20;99.90
51035;DHT22;37062;52.546;13.230;2022-09-27T15:34:48;15.10;99.90
51035;DHT22;37062;52.546;13.230;2022-09-27T15:37:26;15.10;99.90
51035;DHT22;37062;52.546;13.230;2022-09-27T15:39:54;15.10;99.90
51035;DHT22;37062;52.546;13.230;2022-09-27T15:42:22;15.10;99.90
51035;DHT22;37062;52.546;13.230;2022-09-27T15:44:52;15.00;99.90
51035;DHT22;37062;52.546;13.230;2022-09-27T15:47:48;15.10;99.90
51035;DHT22;37062;52.546;13.230;2022-09-27T15:50:36;14.90;99.90
51035;DHT22;37062;52.546;13.230;2022-09-27T15:53:04;14.70;99.90
51035;DHT22;37062;52.546;13.230;2022-09-27T15:55:34;14.50;99.90
51035;DHT22;37062;52.546;13.230;2022-09-27T15:58:03;14.30;99.90
51035;DHT22;37062;52.546;13.230;2022-09-27T16:00:34;14.20;99.90
51035;DHT22;37062;52.546;13.230;2022-09-27T16:03:02;14.00;99.90
51035;DHT22;37062;52.546;13.230;2022-09-27T16:05:29;13.90;99.90
51035;DHT22;37062;52.546;13.230;2022-09-27T16:07:58;13.90;99.90
51035;DHT22;37062;52.546;13.230;2022-09-27T16:10:29;13.80;99.90
51035;DHT22;37062;52.546;13.230;2022-09-27T16:12:57;13.80;99.90